sensor_id;sensor_type;location;lat;lon;timestamp;temperature;humidity
69901;DHT22;57183;50.930;5.406;2022-08-16T00:00:32;18.80;99.90
69901;DHT22;57183;50.930;5.406;2022-08-16T00:02:59;19.10;99.90
69901;DHT22;57183;50.930;5.406;2022-08-16T00:05:26;19.20;99.90
69901;DHT22;57183;50.930;5.406;2022-08-16T00:07:53;19.20;99.90
69901;DHT22;57183;50.930;5.406;2022-08-16T00:10:20;19.30;99.90
69901;DHT22;57183;50.930;5.406;2022-08-16T00:12:46;19.00;99.90
69901;DHT22;57183;50.930;5.406;2022-08-16T00:15:19;18.90;99.90
69901;DHT22;57183;50.930;5.406;2022-08-16T00:17:45;18.70;99.90
69901;DHT22;57183;50.930;5.406;2022-08-16T00:20:12;18.60;99.90
69901;DHT22;57183;50.930;5.406;2022-08-16T00:22:39;18.60;99.90
69901;DHT22;57183;50.930;5.406;2022-08-16T00:25:09;18.60;99.90
69901;DHT22;57183;50.930;5.406;2022-08-16T00:27:35;18.60;99.90
69901;DHT22;57183;50.930;5.406;2022-08-16T00:30:01;18.70;99.90
69901;DHT22;57183;50.930;5.406;2022-08-16T00:32:27;18.80;99.90
69901;DHT22;57183;50.930;5.406;2022-08-16T00:34:52;18.70;99.90
69901;DHT22;57183;50.930;5.406;2022-08-16T00:37:20;18.60;99.90
69901;DHT22;57183;50.930;5.406;2022-08-16T00:39:47;18.60;99.90
69901;DHT22;57183;50.930;5.406;2022-08-16T00:42:13;18.60;99.90
69901;DHT22;57183;50.930;5.406;2022-08-16T00:44:44;18.50;99.90
69901;DHT22;57183;50.930;5.406;2022-08-16T00:47:12;18.30;99.90
69901;DHT22;57183;50.930;5.406;2022-08-16T00:49:41;18.20;99.90
69901;DHT22;57183;50.930;5.406;2022-08-16T00:52:07;18.20;99.90
69901;DHT22;57183;50.930;5.406;2022-08-16T00:54:33;18.20;99.90
69901;DHT22;57183;50.930;5.406;2022-08-16T00:57:00;18.10;99.90
69901;DHT22;57183;50.930;5.406;2022-08-16T00:59:34;18.20;99.90
69901;DHT22;57183;50.930;5.406;2022-08-16T01:02:04;18.20;99.90
69901;DHT22;57183;50.930;5.406;2022-08-16T01:04:30;18.20;99.90
69901;DHT22;57183;50.930;5.406;2022-08-16T01:06:58;18.30;99.90
69901;DHT22;57183;50.930;5.406;2022-08-16T01:09:24;18.40;99.90
69901;DHT22;57183;50.930;5.406;2022-08-16T01:11:50;18.40;99.90
69901;DHT22;57183;50.930;5.406;2022-08-16T01:14:20;18.50;99.90
69901;DHT22;57183;50.930;5.406;2022-08-16T01:16:49;18.40;99.90
69901;DHT22;57183;50.930;5.406;2022-08-16T01:19:32;18.30;99.90
69901;DHT22;57183;50.930;5.406;2022-08-16T01:24:43;18.10;99.90
69901;DHT22;57183;50.930;5.406;2022-08-16T01:27:17;18.10;99.90
69901;DHT22;57183;50.930;5.406;2022-08-16T01:32:22;17.90;99.90
69901;DHT22;57183;50.930;5.406;2022-08-16T01:34:48;17.90;99.90
69901;DHT22;57183;50.930;5.406;2022-08-16T01:37:14;18.30;99.90
69901;DHT22;57183;50.930;5.406;2022-08-16T01:39:40;18.50;99.90
69901;DHT22;57183;50.930;5.406;2022-08-16T01:42:07;18.70;99.90
69901;DHT22;57183;50.930;5.406;2022-08-16T01:44:34;18.70;99.90
69901;DHT22;57183;50.930;5.406;2022-08-16T01:47:00;18.50;99.90
69901;DHT22;57183;50.930;5.406;2022-08-16T01:49:33;18.30;99.90
69901;DHT22;57183;50.930;5.406;2022-08-16T01:52:04;18.10;99.90
69901;DHT22;57183;50.930;5.406;2022-08-16T01:54:30;18.00;99.90
69901;DHT22;57183;50.930;5.406;2022-08-16T01:56:56;17.80;99.90
69901;DHT22;57183;50.930;5.406;2022-08-16T01:59:22;17.70;99.90
69901;DHT22;57183;50.930;5.406;2022-08-16T02:01:50;17.60;99.90
69901;DHT22;57183;50.930;5.406;2022-08-16T02:04:17;17.60;99.90
69901;DHT22;57183;50.930;5.406;2022-08-16T02:06:43;17.50;99.90
69901;DHT22;57183;50.930;5.406;2022-08-16T02:09:10;17.50;99.90
69901;DHT22;57183;50.930;5.406;2022-08-16T02:11:37;17.40;99.90
69901;DHT22;57183;50.930;5.406;2022-08-16T02:14:04;17.30;99.90
69901;DHT22;57183;50.930;5.406;2022-08-16T02:16:31;17.40;99.90
69901;DHT22;57183;50.930;5.406;2022-08-16T02:18:56;17.40;99.90
69901;DHT22;57183;50.930;5.406;2022-08-16T02:21:24;17.30;99.90
69901;DHT22;57183;50.930;5.406;2022-08-16T02:23:50;17.30;99.90
69901;DHT22;57183;50.930;5.406;2022-08-16T02:26:15;17.20;99.90
69901;DHT22;57183;50.930;5.406;2022-08-16T02:28:41;17.20;99.90
69901;DHT22;57183;50.930;5.406;2022-08-16T02:31:10;17.20;99.90
69901;DHT22;57183;50.930;5.406;2022-08-16T02:33:36;17.00;99.90
69901;DHT22;57183;50.930;5.406;2022-08-16T02:36:03;17.00;99.90
69901;DHT22;57183;50.930;5.406;2022-08-16T02:38:29;16.90;99.90
69901;DHT22;57183;50.930;5.406;2022-08-16T02:40:56;16.90;99.90
69901;DHT22;57183;50.930;5.406;2022-08-16T02:43:27;16.90;99.90
69901;DHT22;57183;50.930;5.406;2022-08-16T02:45:54;16.90;99.90
69901;DHT22;57183;50.930;5.406;2022-08-16T02:48:20;16.90;99.90
69901;DHT22;57183;50.930;5.406;2022-08-16T02:50:46;17.00;99.90
69901;DHT22;57183;50.930;5.406;2022-08-16T02:53:12;17.00;99.90
69901;DHT22;57183;50.930;5.406;2022-08-16T02:55:38;16.90;99.90
69901;DHT22;57183;50.930;5.406;2022-08-16T02:58:04;16.80;99.90
69901;DHT22;57183;50.930;5.406;2022-08-16T03:00:30;16.70;99.90
69901;DHT22;57183;50.930;5.406;2022-08-16T03:02:56;16.60;99.90
69901;DHT22;57183;50.930;5.406;2022-08-16T03:05:23;16.50;99.90
69901;DHT22;57183;50.930;5.406;2022-08-16T03:07:49;16.50;99.90
69901;DHT22;57183;50.930;5.406;2022-08-16T03:10:14;16.50;99.90
69901;DHT22;57183;50.930;5.406;2022-08-16T03:12:40;16.50;99.90
69901;DHT22;57183;50.930;5.406;2022-08-16T03:15:09;16.70;99.90
69901;DHT22;57183;50.930;5.406;2022-08-16T03:17:35;17.10;99.90
69901;DHT22;57183;50.930;5.406;2022-08-16T03:20:03;17.50;99.90
69901;DHT22;57183;50.930;5.406;2022-08-16T03:22:29;17.70;99.90
69901;DHT22;57183;50.930;5.406;2022-08-16T03:24:57;17.70;99.90
69901;DHT22;57183;50.930;5.406;2022-08-16T03:27:23;17.60;99.90
69901;DHT22;57183;50.930;5.406;2022-08-16T03:29:49;17.30;99.90
69901;DHT22;57183;50.930;5.406;2022-08-16T03:32:15;17.10;99.90
69901;DHT22;57183;50.930;5.406;2022-08-16T03:34:40;17.00;99.90
69901;DHT22;57183;50.930;5.406;2022-08-16T03:37:06;16.90;99.90
69901;DHT22;57183;50.930;5.406;2022-08-16T03:39:32;16.80;99.90
69901;DHT22;57183;50.930;5.406;2022-08-16T03:41:57;16.80;99.90
69901;DHT22;57183;50.930;5.406;2022-08-16T03:44:23;17.00;99.90
69901;DHT22;57183;50.930;5.406;2022-08-16T03:46:48;17.30;99.90
69901;DHT22;57183;50.930;5.406;2022-08-16T03:49:15;17.60;99.90
69901;DHT22;57183;50.930;5.406;2022-08-16T03:51:42;17.60;99.90
69901;DHT22;57183;50.930;5.406;2022-08-16T03:54:08;17.70;99.90
69901;DHT22;57183;50.930;5.406;2022-08-16T03:56:34;17.80;99.90
69901;DHT22;57183;50.930;5.406;2022-08-16T03:58:59;18.00;99.90
69901;DHT22;57183;50.930;5.406;2022-08-16T04:01:25;17.80;99.90
69901;DHT22;57183;50.930;5.406;2022-08-16T04:03:52;17.50;99.90
69901;DHT22;57183;50.930;5.406;2022-08-16T04:06:18;17.30;99.90
69901;DHT22;57183;50.930;5.406;2022-08-16T04:08:44;17.10;99.90
69901;DHT22;57183;50.930;5.406;2022-08-16T04:11:09;16.80;99.90
69901;DHT22;57183;50.930;5.406;2022-08-16T04:13:35;16.80;99.90
69901;DHT22;57183;50.930;5.406;2022-08-16T04:16:01;16.80;99.90
69901;DHT22;57183;50.930;5.406;2022-08-16T04:18:28;16.70;99.90
69901;DHT22;57183;50.930;5.406;2022-08-16T04:20:55;16.70;99.90
69901;DHT22;57183;50.930;5.406;2022-08-16T04:23:21;16.50;99.90
69901;DHT22;57183;50.930;5.406;2022-08-16T04:25:48;16.30;99.90
69901;DHT22;57183;50.930;5.406;2022-08-16T04:28:14;16.30;99.90
69901;DHT22;57183;50.930;5.406;2022-08-16T04:30:39;16.30;99.90
69901;DHT22;57183;50.930;5.406;2022-08-16T04:33:08;16.20;99.90
69901;DHT22;57183;50.930;5.406;2022-08-16T04:35:34;16.20;99.90
69901;DHT22;57183;50.930;5.406;2022-08-16T04:38:01;16.20;99.90
69901;DHT22;57183;50.930;5.406;2022-08-16T04:40:27;16.10;99.90
69901;DHT22;57183;50.930;5.406;2022-08-16T04:42:53;16.10;99.90
69901;DHT22;57183;50.930;5.406;2022-08-16T04:45:20;16.20;99.90
69901;DHT22;57183;50.930;5.406;2022-08-16T04:47:46;16.30;99.90
69901;DHT22;57183;50.930;5.406;2022-08-16T04:50:15;16.30;99.90
69901;DHT22;57183;50.930;5.406;2022-08-16T04:52:44;16.30;99.90
69901;DHT22;57183;50.930;5.406;2022-08-16T04:55:25;16.20;99.90
69901;DHT22;57183;50.930;5.406;2022-08-16T04:57:52;16.10;99.90
69901;DHT22;57183;50.930;5.406;2022-08-16T05:00:27;16.10;99.90
69901;DHT22;57183;50.930;5.406;2022-08-16T05:03:00;16.00;99.90
69901;DHT22;57183;50.930;5.406;2022-08-16T05:05:25;16.00;99.90
69901;DHT22;57183;50.930;5.406;2022-08-16T05:07:51;16.10;99.90
69901;DHT22;57183;50.930;5.406;2022-08-16T05:10:17;16.10;99.90
69901;DHT22;57183;50.930;5.406;2022-08-16T05:12:43;16.10;99.90
69901;DHT22;57183;50.930;5.406;2022-08-16T05:15:09;16.20;99.90
69901;DHT22;57183;50.930;5.406;2022-08-16T05:17:36;16.30;99.90
69901;DHT22;57183;50.930;5.406;2022-08-16T05:20:06;16.40;99.90
69901;DHT22;57183;50.930;5.406;2022-08-16T05:22:33;16.50;99.90
69901;DHT22;57183;50.930;5.406;2022-08-16T05:25:01;16.90;99.90
69901;DHT22;57183;50.930;5.406;2022-08-16T05:27:27;17.10;99.90
69901;DHT22;57183;50.930;5.406;2022-08-16T05:29:52;17.20;99.90
69901;DHT22;57183;50.930;5.406;2022-08-16T05:32:19;17.20;99.90
69901;DHT22;57183;50.930;5.406;2022-08-16T05:34:45;17.20;99.90
69901;DHT22;57183;50.930;5.406;2022-08-16T05:37:10;17.20;99.90
69901;DHT22;57183;50.930;5.406;2022-08-16T05:39:36;17.20;99.90
69901;DHT22;57183;50.930;5.406;2022-08-16T05:42:03;17.20;99.90
69901;DHT22;57183;50.930;5.406;2022-08-16T05:44:28;17.20;99.90
69901;DHT22;57183;50.930;5.406;2022-08-16T05:46:56;17.30;99.90
69901;DHT22;57183;50.930;5.406;2022-08-16T05:49:24;17.30;99.90
69901;DHT22;57183;50.930;5.406;2022-08-16T05:51:50;17.30;99.90
69901;DHT22;57183;50.930;5.406;2022-08-16T05:54:17;17.40;99.90
69901;DHT22;57183;50.930;5.406;2022-08-16T05:56:44;17.60;99.90
69901;DHT22;57183;50.930;5.406;2022-08-16T05:59:15;17.80;99.90
69901;DHT22;57183;50.930;5.406;2022-08-16T06:01:41;18.20;99.90
69901;DHT22;57183;50.930;5.406;2022-08-16T06:04:11;18.60;99.90
69901;DHT22;57183;50.930;5.406;2022-08-16T06:06:37;18.90;99.90
69901;DHT22;57183;50.930;5.406;2022-08-16T06:09:03;19.20;99.90
69901;DHT22;57183;50.930;5.406;2022-08-16T06:11:29;19.40;99.90
69901;DHT22;57183;50.930;5.406;2022-08-16T06:13:55;19.60;99.90
69901;DHT22;57183;50.930;5.406;2022-08-16T06:16:21;19.80;99.90
69901;DHT22;57183;50.930;5.406;2022-08-16T06:18:47;19.90;99.90
69901;DHT22;57183;50.930;5.406;2022-08-16T06:21:13;20.00;99.90
69901;DHT22;57183;50.930;5.406;2022-08-16T06:23:39;20.10;99.90
69901;DHT22;57183;50.930;5.406;2022-08-16T06:26:06;20.20;99.90
69901;DHT22;57183;50.930;5.406;2022-08-16T06:28:32;20.30;99.90
69901;DHT22;57183;50.930;5.406;2022-08-16T06:30:58;20.60;99.90
69901;DHT22;57183;50.930;5.406;2022-08-16T06:33:24;20.70;99.90
69901;DHT22;57183;50.930;5.406;2022-08-16T06:35:52;20.90;99.90
69901;DHT22;57183;50.930;5.406;2022-08-16T06:38:18;21.10;99.90
69901;DHT22;57183;50.930;5.406;2022-08-16T06:40:43;21.20;99.90
69901;DHT22;57183;50.930;5.406;2022-08-16T06:43:09;21.30;99.90
69901;DHT22;57183;50.930;5.406;2022-08-16T06:45:35;21.40;99.90
69901;DHT22;57183;50.930;5.406;2022-08-16T06:48:06;21.60;99.90
69901;DHT22;57183;50.930;5.406;2022-08-16T06:50:32;21.70;99.90
69901;DHT22;57183;50.930;5.406;2022-08-16T06:52:59;21.90;99.90
69901;DHT22;57183;50.930;5.406;2022-08-16T06:55:26;22.00;99.90
69901;DHT22;57183;50.930;5.406;2022-08-16T06:57:52;22.20;99.90
69901;DHT22;57183;50.930;5.406;2022-08-16T07:00:19;22.30;99.90
69901;DHT22;57183;50.930;5.406;2022-08-16T07:02:45;22.40;99.90
69901;DHT22;57183;50.930;5.406;2022-08-16T07:05:12;22.60;99.90
69901;DHT22;57183;50.930;5.406;2022-08-16T07:07:39;22.80;99.90
69901;DHT22;57183;50.930;5.406;2022-08-16T07:10:06;22.90;99.90
69901;DHT22;57183;50.930;5.406;2022-08-16T07:12:32;23.10;99.90
69901;DHT22;57183;50.930;5.406;2022-08-16T07:14:58;23.20;99.90
69901;DHT22;57183;50.930;5.406;2022-08-16T07:17:26;23.20;99.90
69901;DHT22;57183;50.930;5.406;2022-08-16T07:19:52;23.30;99.90
69901;DHT22;57183;50.930;5.406;2022-08-16T07:22:18;23.30;99.90
69901;DHT22;57183;50.930;5.406;2022-08-16T07:24:44;23.40;99.90
69901;DHT22;57183;50.930;5.406;2022-08-16T07:27:10;23.50;99.90
69901;DHT22;57183;50.930;5.406;2022-08-16T07:29:37;23.60;99.90
69901;DHT22;57183;50.930;5.406;2022-08-16T07:32:04;23.70;99.90
69901;DHT22;57183;50.930;5.406;2022-08-16T07:34:31;23.80;99.90
69901;DHT22;57183;50.930;5.406;2022-08-16T07:36:58;23.80;99.90
69901;DHT22;57183;50.930;5.406;2022-08-16T07:39:25;23.90;99.90
69901;DHT22;57183;50.930;5.406;2022-08-16T07:41:51;23.80;99.90
69901;DHT22;57183;50.930;5.406;2022-08-16T07:44:17;23.90;99.90
69901;DHT22;57183;50.930;5.406;2022-08-16T07:46:42;23.90;99.90
69901;DHT22;57183;50.930;5.406;2022-08-16T07:49:08;24.10;99.90
69901;DHT22;57183;50.930;5.406;2022-08-16T07:51:34;24.20;99.90
69901;DHT22;57183;50.930;5.406;2022-08-16T07:54:05;24.10;99.90
69901;DHT22;57183;50.930;5.406;2022-08-16T07:56:31;24.20;99.90
69901;DHT22;57183;50.930;5.406;2022-08-16T07:58:57;24.20;99.90
69901;DHT22;57183;50.930;5.406;2022-08-16T08:01:24;24.20;99.90
69901;DHT22;57183;50.930;5.406;2022-08-16T08:03:51;24.20;99.90
69901;DHT22;57183;50.930;5.406;2022-08-16T08:06:19;24.10;99.90
69901;DHT22;57183;50.930;5.406;2022-08-16T08:08:45;24.10;99.90
69901;DHT22;57183;50.930;5.406;2022-08-16T08:11:11;24.30;99.90
69901;DHT22;57183;50.930;5.406;2022-08-16T08:13:38;24.40;99.90
69901;DHT22;57183;50.930;5.406;2022-08-16T08:16:04;24.40;99.90
69901;DHT22;57183;50.930;5.406;2022-08-16T08:18:30;24.50;99.90
69901;DHT22;57183;50.930;5.406;2022-08-16T08:20:56;24.50;99.90
69901;DHT22;57183;50.930;5.406;2022-08-16T08:23:22;24.60;99.90
69901;DHT22;57183;50.930;5.406;2022-08-16T08:25:48;24.80;99.90
69901;DHT22;57183;50.930;5.406;2022-08-16T08:28:14;25.10;99.80
69901;DHT22;57183;50.930;5.406;2022-08-16T08:30:40;25.20;99.70
69901;DHT22;57183;50.930;5.406;2022-08-16T08:33:06;25.30;99.20
69901;DHT22;57183;50.930;5.406;2022-08-16T08:35:33;25.30;97.90
69901;DHT22;57183;50.930;5.406;2022-08-16T08:38:00;25.40;97.60
69901;DHT22;57183;50.930;5.406;2022-08-16T08:40:27;25.50;97.60
69901;DHT22;57183;50.930;5.406;2022-08-16T08:42:55;25.50;97.80
69901;DHT22;57183;50.930;5.406;2022-08-16T08:45:21;25.60;97.70
69901;DHT22;57183;50.930;5.406;2022-08-16T08:47:47;25.70;97.50
69901;DHT22;57183;50.930;5.406;2022-08-16T08:50:14;25.80;97.10
69901;DHT22;57183;50.930;5.406;2022-08-16T08:52:43;25.90;96.60
69901;DHT22;57183;50.930;5.406;2022-08-16T08:55:11;25.80;96.60
69901;DHT22;57183;50.930;5.406;2022-08-16T08:57:43;25.80;96.40
69901;DHT22;57183;50.930;5.406;2022-08-16T09:00:11;25.80;96.30
69901;DHT22;57183;50.930;5.406;2022-08-16T09:02:37;25.80;96.10
69901;DHT22;57183;50.930;5.406;2022-08-16T09:05:04;25.80;96.40
69901;DHT22;57183;50.930;5.406;2022-08-16T09:07:30;25.80;96.00
69901;DHT22;57183;50.930;5.406;2022-08-16T09:09:55;26.10;95.90
69901;DHT22;57183;50.930;5.406;2022-08-16T09:12:21;26.10;95.50
69901;DHT22;57183;50.930;5.406;2022-08-16T09:14:48;26.10;95.40
69901;DHT22;57183;50.930;5.406;2022-08-16T09:17:14;26.10;94.90
69901;DHT22;57183;50.930;5.406;2022-08-16T09:19:40;26.00;95.40
69901;DHT22;57183;50.930;5.406;2022-08-16T09:22:07;26.00;95.70
69901;DHT22;57183;50.930;5.406;2022-08-16T09:24:33;26.10;95.50
69901;DHT22;57183;50.930;5.406;2022-08-16T09:26:59;26.10;94.70
69901;DHT22;57183;50.930;5.406;2022-08-16T09:29:25;26.30;94.40
69901;DHT22;57183;50.930;5.406;2022-08-16T09:31:51;26.40;94.40
69901;DHT22;57183;50.930;5.406;2022-08-16T09:34:18;26.60;93.80
69901;DHT22;57183;50.930;5.406;2022-08-16T09:36:44;26.60;93.90
69901;DHT22;57183;50.930;5.406;2022-08-16T09:39:10;26.80;93.50
69901;DHT22;57183;50.930;5.406;2022-08-16T09:41:36;26.90;93.50
69901;DHT22;57183;50.930;5.406;2022-08-16T09:44:02;27.00;92.60
69901;DHT22;57183;50.930;5.406;2022-08-16T09:46:29;27.00;93.00
69901;DHT22;57183;50.930;5.406;2022-08-16T09:48:55;27.10;92.50
69901;DHT22;57183;50.930;5.406;2022-08-16T09:51:23;27.10;92.10
69901;DHT22;57183;50.930;5.406;2022-08-16T09:53:52;27.20;92.10
69901;DHT22;57183;50.930;5.406;2022-08-16T09:56:27;27.30;92.00
69901;DHT22;57183;50.930;5.406;2022-08-16T09:58:53;27.30;91.90
69901;DHT22;57183;50.930;5.406;2022-08-16T10:01:19;27.20;91.80
69901;DHT22;57183;50.930;5.406;2022-08-16T10:03:45;27.00;91.80
69901;DHT22;57183;50.930;5.406;2022-08-16T10:06:11;26.90;92.30
69901;DHT22;57183;50.930;5.406;2022-08-16T10:08:36;26.90;91.90
69901;DHT22;57183;50.930;5.406;2022-08-16T10:11:02;26.90;92.10
69901;DHT22;57183;50.930;5.406;2022-08-16T10:13:46;27.00;91.80
69901;DHT22;57183;50.930;5.406;2022-08-16T10:16:12;27.00;91.40
69901;DHT22;57183;50.930;5.406;2022-08-16T10:18:39;27.00;91.50
69901;DHT22;57183;50.930;5.406;2022-08-16T10:21:05;27.10;91.60
69901;DHT22;57183;50.930;5.406;2022-08-16T10:23:31;27.10;91.40
69901;DHT22;57183;50.930;5.406;2022-08-16T10:25:57;27.40;91.10
69901;DHT22;57183;50.930;5.406;2022-08-16T10:28:24;27.70;91.10
69901;DHT22;57183;50.930;5.406;2022-08-16T10:30:50;28.10;90.80
69901;DHT22;57183;50.930;5.406;2022-08-16T10:33:15;28.30;90.20
69901;DHT22;57183;50.930;5.406;2022-08-16T10:35:43;28.60;89.80
69901;DHT22;57183;50.930;5.406;2022-08-16T10:38:09;28.90;87.80
69901;DHT22;57183;50.930;5.406;2022-08-16T10:40:35;28.90;86.10
69901;DHT22;57183;50.930;5.406;2022-08-16T10:43:00;29.20;86.00
69901;DHT22;57183;50.930;5.406;2022-08-16T10:45:30;29.30;85.70
69901;DHT22;57183;50.930;5.406;2022-08-16T10:47:57;29.20;83.90
69901;DHT22;57183;50.930;5.406;2022-08-16T10:50:24;29.30;84.80
69901;DHT22;57183;50.930;5.406;2022-08-16T10:52:50;29.40;83.70
69901;DHT22;57183;50.930;5.406;2022-08-16T10:55:18;29.30;81.40
69901;DHT22;57183;50.930;5.406;2022-08-16T10:57:44;29.10;83.10
69901;DHT22;57183;50.930;5.406;2022-08-16T11:00:13;29.10;83.60
69901;DHT22;57183;50.930;5.406;2022-08-16T11:02:40;29.00;83.00
69901;DHT22;57183;50.930;5.406;2022-08-16T11:05:09;29.10;82.70
69901;DHT22;57183;50.930;5.406;2022-08-16T11:07:41;29.30;82.30
69901;DHT22;57183;50.930;5.406;2022-08-16T11:10:09;29.20;82.30
69901;DHT22;57183;50.930;5.406;2022-08-16T11:12:35;28.90;82.70
69901;DHT22;57183;50.930;5.406;2022-08-16T11:15:00;28.90;82.20
69901;DHT22;57183;50.930;5.406;2022-08-16T11:17:26;29.00;82.70
69901;DHT22;57183;50.930;5.406;2022-08-16T11:19:52;29.00;81.80
69901;DHT22;57183;50.930;5.406;2022-08-16T11:22:19;28.80;82.90
69901;DHT22;57183;50.930;5.406;2022-08-16T11:24:45;28.60;82.80
69901;DHT22;57183;50.930;5.406;2022-08-16T11:27:17;28.70;83.30
69901;DHT22;57183;50.930;5.406;2022-08-16T11:29:42;28.80;82.70
69901;DHT22;57183;50.930;5.406;2022-08-16T11:32:08;28.90;82.10
69901;DHT22;57183;50.930;5.406;2022-08-16T11:34:34;29.10;81.50
69901;DHT22;57183;50.930;5.406;2022-08-16T11:37:01;29.30;80.60
69901;DHT22;57183;50.930;5.406;2022-08-16T11:39:28;29.40;80.10
69901;DHT22;57183;50.930;5.406;2022-08-16T11:41:54;29.80;79.20
69901;DHT22;57183;50.930;5.406;2022-08-16T11:44:20;29.80;77.50
69901;DHT22;57183;50.930;5.406;2022-08-16T11:46:46;29.80;76.60
69901;DHT22;57183;50.930;5.406;2022-08-16T11:49:12;30.00;77.40
69901;DHT22;57183;50.930;5.406;2022-08-16T11:51:38;30.00;76.80
69901;DHT22;57183;50.930;5.406;2022-08-16T11:54:04;30.10;74.80
69901;DHT22;57183;50.930;5.406;2022-08-16T11:56:30;30.20;75.30
69901;DHT22;57183;50.930;5.406;2022-08-16T11:58:55;30.40;74.60
69901;DHT22;57183;50.930;5.406;2022-08-16T12:01:21;30.50;73.20
69901;DHT22;57183;50.930;5.406;2022-08-16T12:03:47;30.80;74.20
69901;DHT22;57183;50.930;5.406;2022-08-16T12:06:15;30.60;72.10
69901;DHT22;57183;50.930;5.406;2022-08-16T12:08:43;30.30;73.80
69901;DHT22;57183;50.930;5.406;2022-08-16T12:11:10;29.90;75.20
69901;DHT22;57183;50.930;5.406;2022-08-16T12:13:37;29.60;75.90
69901;DHT22;57183;50.930;5.406;2022-08-16T12:16:03;29.40;76.50
69901;DHT22;57183;50.930;5.406;2022-08-16T12:18:32;29.40;76.70
69901;DHT22;57183;50.930;5.406;2022-08-16T12:20:58;29.50;77.00
69901;DHT22;57183;50.930;5.406;2022-08-16T12:23:24;29.60;77.50
69901;DHT22;57183;50.930;5.406;2022-08-16T12:25:50;29.50;75.60
69901;DHT22;57183;50.930;5.406;2022-08-16T12:28:15;29.60;76.30
69901;DHT22;57183;50.930;5.406;2022-08-16T12:30:43;29.70;74.90
69901;DHT22;57183;50.930;5.406;2022-08-16T12:33:11;29.70;76.00
69901;DHT22;57183;50.930;5.406;2022-08-16T12:35:44;29.80;75.80
69901;DHT22;57183;50.930;5.406;2022-08-16T12:38:10;29.80;74.00
69901;DHT22;57183;50.930;5.406;2022-08-16T12:40:39;29.80;73.40
69901;DHT22;57183;50.930;5.406;2022-08-16T12:43:08;29.80;72.70
69901;DHT22;57183;50.930;5.406;2022-08-16T12:45:42;29.80;73.80
69901;DHT22;57183;50.930;5.406;2022-08-16T12:48:08;29.90;74.40
69901;DHT22;57183;50.930;5.406;2022-08-16T12:50:52;29.90;72.70
69901;DHT22;57183;50.930;5.406;2022-08-16T12:53:19;29.70;73.00
69901;DHT22;57183;50.930;5.406;2022-08-16T12:55:45;29.90;72.40
69901;DHT22;57183;50.930;5.406;2022-08-16T12:58:12;30.00;72.40
69901;DHT22;57183;50.930;5.406;2022-08-16T13:00:39;30.30;72.10
69901;DHT22;57183;50.930;5.406;2022-08-16T13:03:05;30.30;71.20
69901;DHT22;57183;50.930;5.406;2022-08-16T13:05:34;30.30;69.40
69901;DHT22;57183;50.930;5.406;2022-08-16T13:08:06;30.10;71.00
69901;DHT22;57183;50.930;5.406;2022-08-16T13:10:31;30.00;71.00
69901;DHT22;57183;50.930;5.406;2022-08-16T13:12:57;30.00;71.80
69901;DHT22;57183;50.930;5.406;2022-08-16T13:15:25;30.30;72.30
69901;DHT22;57183;50.930;5.406;2022-08-16T13:17:52;30.60;70.70
69901;DHT22;57183;50.930;5.406;2022-08-16T13:20:21;30.80;69.90
69901;DHT22;57183;50.930;5.406;2022-08-16T13:22:51;30.90;70.10
69901;DHT22;57183;50.930;5.406;2022-08-16T13:25:21;30.80;69.00
69901;DHT22;57183;50.930;5.406;2022-08-16T13:27:47;30.50;70.00
69901;DHT22;57183;50.930;5.406;2022-08-16T13:30:13;30.60;70.10
69901;DHT22;57183;50.930;5.406;2022-08-16T13:32:39;30.60;69.80
69901;DHT22;57183;50.930;5.406;2022-08-16T13:35:07;30.70;69.50
69901;DHT22;57183;50.930;5.406;2022-08-16T13:37:33;30.90;69.50
69901;DHT22;57183;50.930;5.406;2022-08-16T13:39:59;31.30;70.10
69901;DHT22;57183;50.930;5.406;2022-08-16T13:42:25;31.60;68.70
69901;DHT22;57183;50.930;5.406;2022-08-16T13:44:51;31.70;68.20
69901;DHT22;57183;50.930;5.406;2022-08-16T13:47:17;31.80;66.60
69901;DHT22;57183;50.930;5.406;2022-08-16T13:49:43;32.00;66.70
69901;DHT22;57183;50.930;5.406;2022-08-16T13:52:11;32.20;65.60
69901;DHT22;57183;50.930;5.406;2022-08-16T13:54:37;32.10;65.00
69901;DHT22;57183;50.930;5.406;2022-08-16T13:57:04;31.90;66.60
69901;DHT22;57183;50.930;5.406;2022-08-16T13:59:29;31.70;64.30
69901;DHT22;57183;50.930;5.406;2022-08-16T14:01:56;31.60;64.10
69901;DHT22;57183;50.930;5.406;2022-08-16T14:04:28;31.50;65.30
69901;DHT22;57183;50.930;5.406;2022-08-16T14:06:58;31.60;65.50
69901;DHT22;57183;50.930;5.406;2022-08-16T14:09:25;31.70;64.90
69901;DHT22;57183;50.930;5.406;2022-08-16T14:11:51;31.60;66.00
69901;DHT22;57183;50.930;5.406;2022-08-16T14:14:17;31.30;65.70
69901;DHT22;57183;50.930;5.406;2022-08-16T14:16:42;31.20;65.50
69901;DHT22;57183;50.930;5.406;2022-08-16T14:19:08;31.40;65.70
69901;DHT22;57183;50.930;5.406;2022-08-16T14:21:35;31.40;64.40
69901;DHT22;57183;50.930;5.406;2022-08-16T14:24:03;31.40;64.30
69901;DHT22;57183;50.930;5.406;2022-08-16T14:26:29;31.10;64.10
69901;DHT22;57183;50.930;5.406;2022-08-16T14:28:55;31.30;65.10
69901;DHT22;57183;50.930;5.406;2022-08-16T14:31:21;31.40;64.80
69901;DHT22;57183;50.930;5.406;2022-08-16T14:33:47;31.90;64.00
69901;DHT22;57183;50.930;5.406;2022-08-16T14:36:13;31.90;63.70
69901;DHT22;57183;50.930;5.406;2022-08-16T14:38:39;31.70;64.40
69901;DHT22;57183;50.930;5.406;2022-08-16T14:41:05;31.50;64.30
69901;DHT22;57183;50.930;5.406;2022-08-16T14:43:31;31.20;64.70
69901;DHT22;57183;50.930;5.406;2022-08-16T14:45:56;31.00;64.70
69901;DHT22;57183;50.930;5.406;2022-08-16T14:48:22;31.00;64.40
69901;DHT22;57183;50.930;5.406;2022-08-16T14:50:48;31.10;63.80
69901;DHT22;57183;50.930;5.406;2022-08-16T14:53:14;31.40;66.20
69901;DHT22;57183;50.930;5.406;2022-08-16T14:55:39;31.80;63.70
69901;DHT22;57183;50.930;5.406;2022-08-16T14:58:06;32.20;62.60
69901;DHT22;57183;50.930;5.406;2022-08-16T15:00:32;32.60;61.60
69901;DHT22;57183;50.930;5.406;2022-08-16T15:03:00;32.70;61.50
69901;DHT22;57183;50.930;5.406;2022-08-16T15:05:27;32.30;62.00
69901;DHT22;57183;50.930;5.406;2022-08-16T15:07:54;31.70;62.70
69901;DHT22;57183;50.930;5.406;2022-08-16T15:10:21;31.30;65.00
69901;DHT22;57183;50.930;5.406;2022-08-16T15:12:47;31.40;65.50
69901;DHT22;57183;50.930;5.406;2022-08-16T15:15:16;31.40;64.60
69901;DHT22;57183;50.930;5.406;2022-08-16T15:17:45;31.30;64.60
69901;DHT22;57183;50.930;5.406;2022-08-16T15:20:11;31.10;64.30
69901;DHT22;57183;50.930;5.406;2022-08-16T15:22:40;31.20;64.40
69901;DHT22;57183;50.930;5.406;2022-08-16T15:25:10;31.30;63.80
69901;DHT22;57183;50.930;5.406;2022-08-16T15:27:37;31.30;64.30
69901;DHT22;57183;50.930;5.406;2022-08-16T15:30:10;31.40;63.80
69901;DHT22;57183;50.930;5.406;2022-08-16T15:32:36;31.40;64.40